VVDN/DAD METAR and TAF weather

Enter ICAO airport designator
Station Type Date Time Source
VVDN METAR 2019/05/25 09:30 UTC NOAA

VVDN 250930Z 21009KT 7000 TS SCT013 FEW017CB BKN050 26/23 Q1006 TEMPO TL0950 VRB15G25KT 2000 +TSRA


Station Type Date Time Source
VVDN Decoded METAR 2019/05/25 09:30 UTC NOAA

Da Nang, Vietnam (VVDN) 16-02N 108-11E 7M
May 25, 2019 - 05:30 AM EDT / 2019.05.25 0930 UTC
Wind: from the SSW (210 degrees) at 10 MPH (9 KT):0
Visibility: 4 mile(s):0
Sky conditions: mostly cloudy
Weather: thunder; Cumulonimbus clouds observed
Temperature: 78 F (26 C)
Dew Point: 73 F (23 C)
Relative Humidity: 83%
Pressure (altimeter): 29.71 in. Hg (1006 hPa)
ob: VVDN 250930Z 21009KT 7000 TS SCT013 FEW017CB BKN050 26/23 Q1006 TEMPO TL0950 VRB15G25KT 2000 +TSRA
cycle: 9

Station Type Date Time Source
VVDN TAF 2019/05/25 07:18 UTC NOAA

TAF
AMD TAF
AMD VVDN 250700Z 2507/2606 11010KT 9999 FEW015
TEMPO 2507/2510 VRB15G27KT 3000 TSRA SCT013 SCT017CB BKN050
TEMPO 2510/2514 TS SCT013 FEW017CB SCT050
BECMG 2514/2515 21003KT

Example: see airport list